Time;durP1;ratioP1;P1;durP2;ratioP2;P2;SDS_P1;SDS_P2;PMS_P1;PMS_P2;Temp;Humidity;BMP_temperature;BMP_pressure;BME280_temperature;BME280_humidity;BME280_pressure;Samples;Min_cycle;Max_cycle;Signal;HPM_P1;HPM_P2
2022/11/25 00:01:07;;;;;;;22.10;4.70;;;9.60;99.90;;;;;;5063181;28;20370;-70
2022/11/25 00:03:34;;;;;;;27.77;4.90;;;9.60;99.90;;;;;;5069126;28;20364;-70
2022/11/25 00:06:19;;;;;;;30.80;5.65;;;9.60;99.90;;;;;;5061023;28;20106;-70
2022/11/25 00:08:46;;;;;;;22.83;5.28;;;9.60;99.90;;;;;;5077192;28;20025;-70
2022/11/25 00:11:13;;;;;;;26.50;4.60;;;9.60;99.90;;;;;;5060706;28;20047;-70
2022/11/25 00:13:40;;;;;;;22.13;4.57;;;9.60;99.90;;;;;;5063290;28;20025;-70
2022/11/25 00:16:12;;;;;;;24.40;5.03;;;9.70;99.90;;;;;;5050226;28;20025;-70
2022/11/25 00:18:38;;;;;;;28.05;5.13;;;9.70;99.90;;;;;;5067830;28;20103;-70
2022/11/25 00:21:15;;;;;;;22.45;4.72;;;9.60;99.90;;;;;;5064944;28;20013;-70
2022/11/25 00:23:40;;;;;;;21.88;5.13;;;9.60;99.90;;;;;;5067016;28;20037;-70
2022/11/25 00:26:14;;;;;;;24.77;5.00;;;9.70;99.90;;;;;;5068635;28;20097;-70
2022/11/25 00:28:42;;;;;;;25.85;4.95;;;9.70;99.90;;;;;;5067394;28;20028;-70
2022/11/25 00:31:19;;;;;;;20.10;5.63;;;9.70;99.90;;;;;;5062387;28;20017;-70
2022/11/25 00:33:45;;;;;;;18.20;5.22;;;9.70;99.90;;;;;;5059059;28;20090;-70
2022/11/25 00:36:24;;;;;;;18.90;5.18;;;9.70;99.90;;;;;;5072391;28;20439;-70
2022/11/25 00:38:55;;;;;;;22.67;5.32;;;9.70;99.90;;;;;;5052041;28;20485;-70
2022/11/25 00:46:57;;;;;;;19.80;5.40;;;9.80;99.90;;;;;;5060218;28;20083;-71
2022/11/25 00:49:22;;;;;;;21.15;5.57;;;9.70;99.90;;;;;;5073309;28;20021;-70
2022/11/25 00:51:48;;;;;;;23.02;6.07;;;9.70;99.90;;;;;;5067120;28;20476;-70
2022/11/25 00:54:13;;;;;;;24.48;6.35;;;9.70;99.90;;;;;;5072907;28;20025;-69
2022/11/25 00:56:39;;;;;;;21.55;5.85;;;9.80;99.90;;;;;;5071748;28;20111;-69
2022/11/25 00:59:05;;;;;;;23.58;7.00;;;9.80;99.90;;;;;;5073472;28;20017;-70
2022/11/25 01:01:31;;;;;;;21.63;6.10;;;9.70;99.90;;;;;;5059504;28;20057;-70
2022/11/25 01:03:56;;;;;;;25.10;6.50;;;9.70;99.90;;;;;;5072698;28;20020;-70
2022/11/25 01:06:22;;;;;;;24.08;6.35;;;9.70;99.90;;;;;;5069389;28;20036;-71
2022/11/25 01:08:48;;;;;;;23.60;6.38;;;9.70;99.90;;;;;;5069743;28;20503;-72
2022/11/25 01:11:16;;;;;;;22.10;6.45;;;9.70;99.90;;;;;;5071027;28;20400;-71
2022/11/25 01:13:42;;;;;;;30.08;6.80;;;9.70;99.90;;;;;;5060313;28;20024;-70
2022/11/25 01:16:12;;;;;;;28.70;6.90;;;9.70;99.90;;;;;;5057810;28;20025;-70
2022/11/25 01:18:38;;;;;;;27.55;7.25;;;9.70;99.90;;;;;;5071918;28;20038;-73
2022/11/25 01:21:15;;;;;;;21.55;6.43;;;9.70;99.90;;;;;;5072367;28;20107;-71
2022/11/25 01:23:42;;;;;;;24.88;6.32;;;9.70;99.90;;;;;;5072284;28;20043;-70
2022/11/25 01:26:11;;;;;;;28.08;7.68;;;9.80;99.90;;;;;;5071769;28;20110;-70
2022/11/25 01:28:36;;;;;;;24.45;6.53;;;9.80;99.90;;;;;;5072547;28;20320;-69
2022/11/25 01:31:08;;;;;;;25.13;6.75;;;9.80;99.90;;;;;;5073428;28;20519;-70
2022/11/25 01:33:34;;;;;;;24.65;7.25;;;9.80;99.90;;;;;;5071812;28;20111;-69
2022/11/25 01:36:02;;;;;;;28.90;7.00;;;9.80;99.90;;;;;;5069020;28;20291;-70
2022/11/25 01:38:28;;;;;;;30.02;6.25;;;9.80;99.90;;;;;;5071655;28;20028;-71
2022/11/25 01:40:53;;;;;;;23.73;5.80;;;9.80;99.90;;;;;;5070674;28;20484;-69
2022/11/25 01:43:19;;;;;;;18.95;5.32;;;9.80;99.90;;;;;;5071249;28;20025;-70
2022/11/25 01:45:44;;;;;;;25.17;5.43;;;9.80;99.90;;;;;;5070777;28;20048;-70
2022/11/25 01:48:27;;;;;;;20.98;4.68;;;9.90;99.90;;;;;;5054450;28;20025;-71
2022/11/25 01:50:54;;;;;;;23.67;4.00;;;9.90;99.90;;;;;;5065055;28;20367;-71
2022/11/25 01:53:21;;;;;;;22.17;4.70;;;9.90;99.90;;;;;;5071172;28;20021;-70
2022/11/25 01:55:51;;;;;;;15.57;3.90;;;9.90;99.90;;;;;;5071092;28;20113;-70
2022/11/25 01:58:21;;;;;;;20.98;3.75;;;9.90;99.90;;;;;;5054744;28;20063;-70
2022/11/25 02:00:50;;;;;;;18.08;3.80;;;9.90;99.90;;;;;;5061670;28;20014;-69
2022/11/25 02:03:35;;;;;;;15.00;3.30;;;9.90;99.90;;;;;;5071755;28;20017;-69
2022/11/25 02:06:20;;;;;;;12.63;3.22;;;9.90;99.90;;;;;;5068527;28;20055;-71
2022/11/25 02:08:48;;;;;;;;;;;9.90;99.90;;;;;;5060684;28;20050;-70
2022/11/25 02:11:15;;;;;;;21.17;3.80;;;9.90;99.90;;;;;;5070114;28;20046;-70
2022/11/25 02:13:42;;;;;;;21.40;3.50;;;9.90;99.90;;;;;;5071797;28;20020;-70
2022/11/25 02:16:08;;;;;;;20.35;3.20;;;9.80;99.90;;;;;;5066023;28;20546;-70
2022/11/25 02:18:33;;;;;;;22.35;3.80;;;9.80;99.90;;;;;;5068673;28;20020;-70
2022/11/25 02:20:59;;;;;;;14.73;3.33;;;9.80;99.90;;;;;;5056438;28;20021;-70
2022/11/25 02:23:39;;;;;;;19.52;3.65;;;9.80;99.90;;;;;;5066022;28;20021;-70
2022/11/25 02:26:05;;;;;;;17.20;3.58;;;9.80;99.90;;;;;;5058099;28;20025;-70
2022/11/25 02:28:32;;;;;;;13.88;3.47;;;9.80;99.90;;;;;;5060631;28;20036;-70
2022/11/25 02:30:58;;;;;;;17.55;3.15;;;9.80;99.90;;;;;;5071336;28;20032;-69
2022/11/25 02:33:25;;;;;;;15.85;3.33;;;9.80;99.90;;;;;;5071106;28;20032;-69
2022/11/25 02:35:54;;;;;;;21.65;3.95;;;9.80;99.90;;;;;;5055624;28;20554;-69
2022/11/25 02:38:41;;;;;;;15.93;3.53;;;9.80;99.90;;;;;;5070990;28;20259;-70
2022/11/25 02:41:36;;;;;;;18.25;3.58;;;9.80;99.90;;;;;;5064761;28;20060;-70
2022/11/25 02:44:02;;;;;;;12.37;2.90;;;9.80;99.90;;;;;;5066377;28;20100;-70
2022/11/25 02:46:29;;;;;;;12.23;2.75;;;9.70;99.90;;;;;;5069265;28;20044;-70
2022/11/25 02:48:57;;;;;;;18.60;3.33;;;9.70;99.90;;;;;;5064784;28;20054;-69
2022/11/25 02:51:26;;;;;;;13.93;2.97;;;9.70;99.90;;;;;;5068394;28;20040;-70
2022/11/25 02:53:52;;;;;;;23.33;3.08;;;9.70;99.90;;;;;;5060097;28;20040;-70
2022/11/25 02:56:22;;;;;;;15.93;3.38;;;9.60;99.90;;;;;;5063235;28;20536;-70
2022/11/25 02:58:47;;;;;;;12.45;2.75;;;9.60;99.90;;;;;;5061167;28;20500;-69
2022/11/25 03:01:13;;;;;;;15.20;3.15;;;9.70;99.90;;;;;;5065909;28;20017;-70
2022/11/25 03:03:39;;;;;;;19.67;3.25;;;9.60;99.90;;;;;;5069985;28;20032;-70
2022/11/25 03:06:05;;;;;;;15.38;2.90;;;9.60;99.90;;;;;;5058370;28;20040;-70
2022/11/25 03:08:30;;;;;;;12.60;2.70;;;9.60;99.90;;;;;;5069847;28;20033;-70
2022/11/25 03:10:56;;;;;;;11.77;2.80;;;9.60;99.90;;;;;;5070069;28;20048;-70
2022/11/25 03:13:21;;;;;;;12.57;2.35;;;9.60;99.90;;;;;;5055783;28;20017;-70
2022/11/25 03:15:47;;;;;;;6.35;2.40;;;9.60;99.90;;;;;;5062441;28;20032;-70
2022/11/25 03:18:13;;;;;;;9.70;2.47;;;9.60;99.90;;;;;;5069277;28;20025;-69
2022/11/25 03:20:39;;;;;;;14.27;2.53;;;9.50;99.90;;;;;;5069460;28;20025;-71
2022/11/25 03:23:05;;;;;;;9.40;2.28;;;9.60;99.90;;;;;;5065630;28;20012;-72
2022/11/25 03:25:31;;;;;;;12.18;2.08;;;9.60;99.90;;;;;;5065018;28;20079;-69
2022/11/25 03:27:56;;;;;;;13.60;3.10;;;9.50;99.90;;;;;;5063664;28;20013;-70
2022/11/25 03:30:24;;;;;;;7.93;2.70;;;9.50;99.90;;;;;;5069658;28;20025;-70
2022/11/25 03:32:50;;;;;;;12.90;2.92;;;9.50;99.90;;;;;;5069558;28;20024;-70
2022/11/25 03:35:16;;;;;;;10.88;3.35;;;9.50;99.90;;;;;;5066121;28;20456;-70
2022/11/25 03:37:41;;;;;;;12.73;2.95;;;9.50;99.90;;;;;;5054315;28;20023;-70
2022/11/25 03:40:09;;;;;;;15.52;3.20;;;9.50;99.90;;;;;;5050249;28;20470;-70
2022/11/25 03:42:35;;;;;;;10.25;3.58;;;9.50;99.90;;;;;;5064075;28;20029;-71
2022/11/25 03:45:01;;;;;;;12.20;3.65;;;9.40;99.90;;;;;;5067223;28;20119;-70
2022/11/25 03:47:26;;;;;;;12.68;3.70;;;9.40;99.90;;;;;;5068577;28;20027;-70
2022/11/25 03:49:52;;;;;;;14.23;3.50;;;9.40;99.90;;;;;;5049402;28;20025;-70
2022/11/25 03:52:17;;;;;;;14.30;3.42;;;9.40;99.90;;;;;;5066253;28;20430;-70
2022/11/25 03:54:43;;;;;;;14.57;3.05;;;9.30;99.90;;;;;;5066072;28;20032;-71
2022/11/25 03:57:09;;;;;;;12.70;3.08;;;9.30;99.90;;;;;;5057163;28;20032;-70
2022/11/25 03:59:35;;;;;;;10.63;2.72;;;9.30;99.90;;;;;;5066383;28;20052;-70
2022/11/25 04:02:00;;;;;;;9.35;2.75;;;9.20;99.90;;;;;;5069012;28;20379;-70
2022/11/25 04:04:26;;;;;;;10.65;3.28;;;9.20;99.90;;;;;;5073347;28;20058;-70
2022/11/25 04:06:52;;;;;;;11.00;2.50;;;9.20;99.90;;;;;;5068702;28;20370;-70
2022/11/25 04:09:17;;;;;;;8.15;2.45;;;9.20;99.90;;;;;;5065424;28;20031;-71
2022/11/25 04:14:28;;;;;;;7.97;1.88;;;9.10;99.90;;;;;;5071433;28;20055;-70
2022/11/25 04:16:54;;;;;;;7.32;1.92;;;9.10;99.90;;;;;;5070276;28;20029;-71
2022/11/25 04:19:19;;;;;;;7.47;2.08;;;9.10;99.90;;;;;;5067701;28;20036;-71
2022/11/25 04:21:45;;;;;;;6.97;1.98;;;9.10;99.90;;;;;;5068132;28;20163;-70
2022/11/25 04:24:10;;;;;;;8.85;1.58;;;9.00;99.90;;;;;;5071959;28;20025;-71
2022/11/25 04:26:36;;;;;;;5.20;1.70;;;9.00;99.90;;;;;;5064590;28;20394;-71
2022/11/25 04:29:02;;;;;;;5.43;1.67;;;9.00;99.90;;;;;;5062851;28;20028;-70
2022/11/25 04:31:27;;;;;;;8.80;1.60;;;9.00;99.90;;;;;;5069035;28;20024;-70
2022/11/25 04:33:53;;;;;;;5.60;1.48;;;8.90;99.90;;;;;;5060697;28;20035;-70
2022/11/25 04:36:19;;;;;;;8.23;1.60;;;8.90;99.90;;;;;;5067782;28;20102;-70
2022/11/25 04:38:44;;;;;;;7.13;1.70;;;8.90;99.90;;;;;;5058866;28;20648;-72
2022/11/25 04:41:10;;;;;;;51.53;28.30;;;8.90;99.90;;;;;;5071914;28;20052;-69
2022/11/25 04:43:35;;;;;;;8.13;1.90;;;8.90;99.90;;;;;;5073391;28;20029;-70
2022/11/25 04:46:02;;;;;;;5.88;1.50;;;8.90;99.90;;;;;;5081508;28;20116;-70
2022/11/25 04:48:28;;;;;;;7.15;1.60;;;8.90;99.90;;;;;;5071781;28;20086;-70
2022/11/25 04:50:54;;;;;;;6.63;1.30;;;8.90;99.90;;;;;;5070540;28;20020;-70
2022/11/25 04:53:20;;;;;;;8.32;1.70;;;8.90;99.90;;;;;;5063800;28;20028;-69
2022/11/25 04:55:45;;;;;;;8.45;1.70;;;8.90;99.90;;;;;;5066645;28;20029;-70
2022/11/25 04:58:11;;;;;;;6.50;1.60;;;8.90;99.90;;;;;;5071671;28;20391;-71
2022/11/25 05:00:37;;;;;;;6.75;1.75;;;8.90;99.90;;;;;;5072864;28;20017;-70
2022/11/25 05:03:03;;;;;;;7.13;2.17;;;8.90;99.90;;;;;;5057946;28;20436;-70
2022/11/25 05:05:29;;;;;;;9.70;2.22;;;8.90;99.90;;;;;;5061459;28;20028;-70
2022/11/25 05:07:56;;;;;;;8.68;2.00;;;8.90;99.90;;;;;;5072451;28;20029;-70
2022/11/25 05:10:21;;;;;;;5.80;1.80;;;8.90;99.90;;;;;;5071816;28;20027;-69
2022/11/25 05:12:47;;;;;;;7.03;1.42;;;8.80;99.90;;;;;;5071517;28;20021;-69
2022/11/25 05:15:12;;;;;;;11.30;2.20;;;8.80;99.90;;;;;;5071929;28;20020;-69
2022/11/25 05:17:38;;;;;;;8.15;1.73;;;8.80;99.90;;;;;;5072653;28;20032;-70
2022/11/25 05:20:05;;;;;;;8.95;1.75;;;8.90;99.90;;;;;;5072001;28;20341;-70
2022/11/25 05:22:32;;;;;;;8.05;1.83;;;8.80;99.90;;;;;;5071713;28;20046;-70
2022/11/25 05:24:58;;;;;;;9.98;2.33;;;8.90;99.90;;;;;;5072582;28;20461;-71
2022/11/25 05:27:25;;;;;;;6.10;1.90;;;8.90;99.90;;;;;;5071234;28;20017;-69
2022/11/25 05:29:51;;;;;;;9.15;2.28;;;8.90;99.90;;;;;;5072155;28;20472;-69
2022/11/25 05:32:17;;;;;;;4.45;1.80;;;8.90;99.90;;;;;;5064470;28;20059;-69
2022/11/25 05:34:43;;;;;;;7.10;2.35;;;8.90;99.90;;;;;;5072280;28;20024;-69
2022/11/25 05:37:11;;;;;;;10.43;2.45;;;8.80;99.90;;;;;;5057297;28;20031;-70
2022/11/25 05:39:37;;;;;;;9.75;2.35;;;8.80;99.90;;;;;;5073010;28;20020;-70
2022/11/25 05:42:03;;;;;;;10.13;2.03;;;8.80;99.90;;;;;;5071646;28;20024;-69
2022/11/25 05:44:28;;;;;;;12.10;2.30;;;8.80;99.90;;;;;;5070774;28;20075;-71
2022/11/25 05:46:54;;;;;;;9.73;2.20;;;8.80;99.90;;;;;;5070929;28;20064;-70
2022/11/25 05:49:19;;;;;;;11.52;2.22;;;8.70;99.90;;;;;;5070846;28;20236;-70
2022/11/25 05:51:45;;;;;;;12.68;2.55;;;8.70;99.90;;;;;;5062261;28;20032;-70
2022/11/25 05:54:11;;;;;;;6.47;2.42;;;8.70;99.90;;;;;;5067585;28;20092;-71
2022/11/25 05:56:37;;;;;;;8.57;2.85;;;8.60;99.90;;;;;;5071938;28;20021;-69
2022/11/25 05:59:03;;;;;;;5.93;2.20;;;8.60;99.90;;;;;;5072304;28;20032;-70
2022/11/25 06:01:29;;;;;;;8.98;2.53;;;8.60;99.90;;;;;;5083216;28;20034;-70
2022/11/25 06:03:59;;;;;;;8.52;2.53;;;8.50;99.90;;;;;;5061191;28;20488;-69
2022/11/25 06:06:25;;;;;;;8.40;2.22;;;8.50;99.90;;;;;;5053427;28;20056;-70
2022/11/25 06:08:51;;;;;;;8.38;2.22;;;8.50;99.90;;;;;;5052413;28;20044;-70
2022/11/25 06:11:17;;;;;;;7.47;2.00;;;8.50;99.90;;;;;;5065752;28;20031;-70
2022/11/25 06:13:43;;;;;;;12.40;2.20;;;8.50;99.90;;;;;;5069831;28;20112;-70
2022/11/25 06:16:17;;;;;;;8.93;2.25;;;8.40;99.90;;;;;;5060096;28;20116;-69
2022/11/25 06:18:43;;;;;;;9.27;2.33;;;8.40;99.90;;;;;;5066488;28;20017;-69
2022/11/25 06:21:10;;;;;;;12.55;2.42;;;8.40;99.90;;;;;;5064716;28;20387;-70
2022/11/25 06:23:36;;;;;;;9.10;1.88;;;8.40;99.90;;;;;;5071187;28;20504;-70
2022/11/25 06:26:21;;;;;;;7.13;1.90;;;8.40;99.90;;;;;;5085595;28;20293;-70
2022/11/25 06:28:47;;;;;;;10.55;2.25;;;8.40;99.90;;;;;;5086286;28;20032;-70
2022/11/25 06:31:18;;;;;;;8.05;2.30;;;8.40;99.90;;;;;;5078680;28;20383;-70
2022/11/25 06:33:48;;;;;;;7.80;2.30;;;8.40;99.90;;;;;;5080910;28;20024;-69
2022/11/25 06:36:17;;;;;;;9.20;2.30;;;8.40;99.90;;;;;;5065770;28;20492;-70
2022/11/25 06:38:50;;;;;;;9.85;2.13;;;8.40;99.90;;;;;;5070694;28;20029;-69
2022/11/25 06:41:17;;;;;;;8.77;2.13;;;8.40;99.90;;;;;;5079280;28;20090;-72
2022/11/25 06:43:42;;;;;;;6.97;2.05;;;8.40;99.90;;;;;;5081385;28;20401;-70
2022/11/25 06:46:14;;;;;;;9.73;2.13;;;8.40;99.90;;;;;;5070499;28;20044;-70
2022/11/25 06:48:40;;;;;;;10.88;2.10;;;8.40;99.90;;;;;;5070284;28;20025;-70
2022/11/25 06:51:15;;;;;;;9.70;1.85;;;8.30;99.90;;;;;;5071332;28;20024;-70
2022/11/25 06:53:40;;;;;;;;;;;8.30;99.90;;;;;;5065472;28;20430;-71
2022/11/25 06:56:24;;;;;;;8.07;2.10;;;8.30;99.90;;;;;;5082298;28;19926;-70
2022/11/25 06:58:52;;;;;;;9.98;2.78;;;8.30;99.90;;;;;;5061741;28;20128;-70
2022/11/25 07:01:26;;;;;;;9.85;2.17;;;8.30;99.90;;;;;;5070011;28;20024;-70
2022/11/25 07:03:55;;;;;;;13.45;2.20;;;8.30;99.90;;;;;;5070419;28;20020;-70
2022/11/25 07:06:21;;;;;;;13.35;2.28;;;8.30;99.90;;;;;;5069682;28;20040;-70
2022/11/25 07:08:47;;;;;;;12.07;1.90;;;8.40;99.90;;;;;;5069697;28;20027;-70
2022/11/25 07:11:27;;;;;;;8.27;2.00;;;8.40;99.90;;;;;;5068757;28;20021;-70
2022/11/25 07:14:02;;;;;;;10.48;2.13;;;8.40;99.90;;;;;;5058967;28;20024;-70
2022/11/25 07:16:28;;;;;;;11.63;2.20;;;8.40;99.90;;;;;;5073675;28;20028;-71
2022/11/25 07:18:54;;;;;;;12.00;2.30;;;8.40;99.90;;;;;;5053108;28;20071;-69
2022/11/25 07:21:22;;;;;;;7.20;2.20;;;8.40;99.90;;;;;;5072949;28;20075;-70
2022/11/25 07:23:49;;;;;;;10.75;2.08;;;8.40;99.90;;;;;;5069386;28;20024;-71
2022/11/25 07:26:21;;;;;;;5.68;1.80;;;8.40;99.90;;;;;;5080812;28;20035;-69
2022/11/25 07:28:49;;;;;;;8.32;2.05;;;8.40;99.90;;;;;;5072671;28;20166;-70
2022/11/25 07:31:18;;;;;;;7.30;1.90;;;8.40;99.90;;;;;;5084637;28;20024;-70
2022/11/25 07:33:44;;;;;;;8.48;1.70;;;8.30;99.90;;;;;;5084690;28;20603;-70
2022/11/25 07:36:12;;;;;;;6.20;1.88;;;8.30;99.90;;;;;;5081436;28;20303;-70
2022/11/25 07:38:38;;;;;;;9.93;1.88;;;8.30;99.90;;;;;;5069081;28;20025;-69
2022/11/25 07:41:13;;;;;;;5.55;1.60;;;8.30;99.90;;;;;;5069813;28;20021;-69
2022/11/25 07:43:39;;;;;;;7.63;1.58;;;8.30;99.90;;;;;;5063236;28;20032;-70
2022/11/25 07:46:25;;;;;;;7.90;1.75;;;8.30;99.90;;;;;;5064804;28;20041;-69
2022/11/25 07:48:54;;;;;;;8.75;1.80;;;8.30;99.90;;;;;;5065820;28;20048;-70
2022/11/25 07:51:24;;;;;;;8.32;1.80;;;8.30;99.90;;;;;;5060270;28;20012;-69
2022/11/25 07:53:51;;;;;;;10.35;1.70;;;8.30;99.90;;;;;;5071905;28;20025;-70
2022/11/25 07:56:17;;;;;;;13.05;1.85;;;8.30;99.90;;;;;;5070098;28;20083;-69
2022/11/25 07:58:44;;;;;;;7.40;1.65;;;8.30;99.90;;;;;;5073687;28;20060;-70
2022/11/25 08:01:11;;;;;;;13.25;2.13;;;8.30;99.90;;;;;;5067319;28;20024;-69
2022/11/25 08:03:38;;;;;;;11.70;2.08;;;8.30;99.90;;;;;;5069509;28;20082;-69
2022/11/25 08:06:07;;;;;;;10.05;2.05;;;8.40;99.90;;;;;;5068972;28;20465;-69
2022/11/25 08:08:33;;;;;;;8.00;1.88;;;8.40;99.90;;;;;;5070104;28;20451;-70
2022/11/25 08:10:59;;;;;;;8.27;1.98;;;8.40;99.90;;;;;;5069210;28;20043;-72
2022/11/25 08:13:24;;;;;;;7.50;1.92;;;8.40;99.90;;;;;;5069051;28;20025;-71
2022/11/25 08:15:50;;;;;;;11.73;2.45;;;8.40;99.90;;;;;;5069632;28;20120;-70
2022/11/25 08:18:16;;;;;;;9.45;2.30;;;8.40;99.90;;;;;;5069215;28;20531;-69
2022/11/25 08:20:41;;;;;;;10.45;2.53;;;8.40;99.90;;;;;;5069336;28;20220;-70
2022/11/25 08:23:07;;;;;;;9.98;2.30;;;8.50;99.90;;;;;;5069412;28;20447;-70
2022/11/25 08:25:37;;;;;;;10.55;2.70;;;8.50;99.90;;;;;;5083274;28;20116;-69
2022/11/25 08:28:03;;;;;;;10.25;2.53;;;8.50;99.90;;;;;;5069291;28;20032;-70
2022/11/25 08:30:28;;;;;;;10.77;2.60;;;8.60;99.90;;;;;;5065938;28;20024;-69
2022/11/25 08:32:54;;;;;;;12.55;2.90;;;8.60;99.90;;;;;;5074698;28;20016;-70
2022/11/25 08:35:20;;;;;;;11.48;2.35;;;8.60;99.90;;;;;;5074286;28;20502;-70
2022/11/25 08:37:45;;;;;;;13.88;2.10;;;8.70;99.90;;;;;;5062381;28;20025;-70
2022/11/25 08:40:11;;;;;;;12.15;2.28;;;8.80;99.90;;;;;;5061958;28;20033;-71
2022/11/25 08:42:37;;;;;;;11.05;2.17;;;8.80;99.90;;;;;;5078341;28;20386;-70
2022/11/25 08:45:04;;;;;;;18.38;2.33;;;8.90;99.90;;;;;;5048725;28;20075;-70
2022/11/25 08:47:30;;;;;;;15.80;2.42;;;8.90;99.90;;;;;;5077120;28;20477;-69
2022/11/25 08:49:56;;;;;;;15.07;2.05;;;9.00;99.90;;;;;;5052529;28;20246;-70
2022/11/25 08:52:22;;;;;;;12.43;2.25;;;9.00;99.90;;;;;;5067917;28;20125;-70
2022/11/25 08:54:48;;;;;;;17.48;2.15;;;9.00;99.90;;;;;;5065739;28;20136;-69
2022/11/25 08:57:14;;;;;;;13.73;2.08;;;9.10;99.90;;;;;;5065767;28;20478;-70
2022/11/25 08:59:39;;;;;;;7.10;1.52;;;9.10;99.90;;;;;;5072390;28;20464;-70
2022/11/25 09:02:06;;;;;;;12.93;2.38;;;9.10;99.90;;;;;;5072834;28;20035;-70
2022/11/25 09:04:32;;;;;;;17.88;2.67;;;9.20;99.90;;;;;;5072162;28;20027;-69
2022/11/25 09:06:58;;;;;;;11.77;1.80;;;9.20;99.90;;;;;;5073131;28;20326;-70
2022/11/25 09:09:24;;;;;;;9.32;1.83;;;9.20;99.90;;;;;;5072453;28;20025;-69
2022/11/25 09:11:50;;;;;;;12.93;2.10;;;9.30;99.90;;;;;;5071267;28;20036;-69
2022/11/25 09:14:15;;;;;;;6.20;2.17;;;9.30;99.90;;;;;;5059370;28;20028;-70
2022/11/25 09:16:41;;;;;;;8.82;1.88;;;9.40;99.90;;;;;;5074403;28;20099;-69
2022/11/25 09:19:07;;;;;;;9.98;2.05;;;9.40;99.90;;;;;;5072701;28;20476;-70
2022/11/25 09:21:32;;;;;;;8.45;2.03;;;9.50;99.90;;;;;;5072839;28;20024;-70
2022/11/25 09:23:58;;;;;;;9.20;2.33;;;9.50;99.90;;;;;;5059008;28;20027;-69
2022/11/25 09:26:26;;;;;;;7.88;1.67;;;9.60;99.90;;;;;;5073425;28;20038;-70
2022/11/25 09:28:52;;;;;;;13.50;2.20;;;9.60;99.90;;;;;;5085794;28;20035;-70
2022/11/25 09:31:19;;;;;;;11.00;2.10;;;9.70;99.90;;;;;;5083290;28;20026;-70
2022/11/25 09:33:45;;;;;;;11.27;2.42;;;9.80;99.90;;;;;;5088114;28;20452;-71
2022/11/25 09:36:12;;;;;;;12.05;2.22;;;9.90;99.90;;;;;;5087144;28;20059;-70
2022/11/25 09:38:39;;;;;;;11.20;1.92;;;10.00;99.90;;;;;;5088585;28;20078;-72
2022/11/25 09:41:08;;;;;;;12.18;2.25;;;10.00;99.90;;;;;;5084595;28;20397;-69
2022/11/25 09:46:42;;;;;;;11.13;2.28;;;10.20;99.90;;;;;;5080037;28;20039;-69
2022/11/25 09:49:29;;;;;;;16.50;2.05;;;10.30;99.90;;;;;;5088341;28;20028;-69
2022/11/25 09:52:32;;;;;;;16.05;2.70;;;10.40;99.90;;;;;;5088446;28;20106;-70
2022/11/25 09:55:09;;;;;;;10.00;2.20;;;10.40;99.90;;;;;;5038542;28;20397;-70
2022/11/25 09:57:49;;;;;;;11.27;2.00;;;10.40;99.90;;;;;;5071839;28;20025;-70
2022/11/25 10:00:19;;;;;;;8.65;1.95;;;10.50;99.90;;;;;;5061186;28;20040;-71
2022/11/25 10:03:11;;;;;;;12.77;2.30;;;10.50;99.90;;;;;;5074834;28;20043;-70
2022/11/25 10:06:00;;;;;;;16.52;2.35;;;10.50;99.90;;;;;;5087275;28;20036;-69
2022/11/25 10:08:32;;;;;;;8.98;2.40;;;10.50;99.90;;;;;;5084135;28;20032;-70
2022/11/25 10:11:06;;;;;;;16.25;2.65;;;10.50;99.90;;;;;;5080247;28;20020;-73
2022/11/25 10:13:58;;;;;;;10.05;1.83;;;10.50;99.90;;;;;;5083359;28;20028;-69
2022/11/25 10:16:55;;;;;;;14.50;2.70;;;10.60;99.90;;;;;;5084602;28;21775;-71
2022/11/25 10:19:40;;;;;;;15.43;2.65;;;10.70;99.90;;;;;;5082770;28;20483;-70
2022/11/25 10:22:40;;;;;;;13.07;2.70;;;10.70;99.90;;;;;;5081802;28;20033;-70
2022/11/25 10:25:14;;;;;;;16.20;3.10;;;10.90;99.90;;;;;;5069511;28;20039;-69
2022/11/25 10:27:54;;;;;;;11.43;2.40;;;10.90;99.90;;;;;;5077337;28;20035;-71
2022/11/25 10:30:25;;;;;;;14.52;2.47;;;11.00;99.90;;;;;;5071093;28;20032;-71
2022/11/25 10:33:11;;;;;;;14.45;2.40;;;11.00;99.90;;;;;;5071175;28;20068;-69
2022/11/25 10:35:44;;;;;;;16.65;2.38;;;11.00;99.90;;;;;;5070601;28;20016;-70
2022/11/25 10:38:26;;;;;;;17.00;2.63;;;11.10;99.90;;;;;;5071278;28;20024;-69
2022/11/25 10:40:53;;;;;;;12.60;2.47;;;11.10;99.90;;;;;;5070281;28;20468;-70
2022/11/25 10:43:19;;;;;;;15.98;2.67;;;11.20;99.90;;;;;;5070549;28;20024;-69
2022/11/25 10:46:06;;;;;;;20.00;2.67;;;11.20;99.90;;;;;;5056042;28;20511;-69
2022/11/25 10:49:04;;;;;;;16.95;2.58;;;11.30;99.90;;;;;;5061080;28;20040;-71
2022/11/25 10:51:30;;;;;;;15.57;3.03;;;11.40;99.90;;;;;;5073643;28;20028;-70
2022/11/25 10:54:12;;;;;;;15.48;2.85;;;11.40;99.90;;;;;;5087240;28;20114;-67
2022/11/25 10:56:58;;;;;;;16.25;2.80;;;11.40;99.90;;;;;;5079892;28;20021;-68
2022/11/25 10:59:34;;;;;;;14.23;2.45;;;11.50;99.90;;;;;;5081094;28;20024;-67
2022/11/25 11:02:22;;;;;;;13.85;2.58;;;11.50;99.90;;;;;;5073585;28;20484;-68
2022/11/25 11:05:08;;;;;;;16.10;2.70;;;11.50;99.90;;;;;;5068843;28;20039;-70
2022/11/25 11:07:36;;;;;;;18.50;3.05;;;11.50;99.90;;;;;;5070966;28;20309;-70
2022/11/25 11:10:24;;;;;;;18.85;2.78;;;11.50;99.90;;;;;;5085043;28;20040;-73
2022/11/25 11:12:49;;;;;;;18.60;3.63;;;11.50;99.90;;;;;;5076944;28;20377;-70
2022/11/25 11:15:21;;;;;;;21.20;2.83;;;11.50;99.90;;;;;;5067319;28;20023;-70
2022/11/25 11:17:47;;;;;;;18.80;3.22;;;11.40;99.90;;;;;;5075009;28;20423;-70
2022/11/25 11:20:22;;;;;;;24.35;3.45;;;11.50;99.90;;;;;;5070057;28;20020;-71
2022/11/25 11:22:57;;;;;;;20.63;3.33;;;11.50;99.90;;;;;;5060391;28;20026;-73
2022/11/25 11:25:43;;;;;;;13.50;2.90;;;11.50;99.90;;;;;;5069472;28;20017;-70
2022/11/25 11:28:27;;;;;;;14.43;2.55;;;11.60;99.90;;;;;;5070315;28;20024;-70
2022/11/25 11:31:07;;;;;;;14.65;2.72;;;11.70;99.90;;;;;;5073690;28;20017;-71
2022/11/25 11:33:47;;;;;;;16.05;2.58;;;11.70;99.90;;;;;;5086013;28;20480;-70
2022/11/25 11:36:50;;;;;;;25.65;3.38;;;11.70;99.90;;;;;;5065314;28;20095;-71
2022/11/25 11:39:58;;;;;;;18.95;3.20;;;11.70;99.90;;;;;;5072563;28;20032;-70
2022/11/25 11:42:51;;;;;;;20.23;2.97;;;11.60;99.90;;;;;;5088532;28;20123;-72
2022/11/25 11:45:35;;;;;;;17.88;3.40;;;11.60;99.90;;;;;;5086284;28;20476;-70
2022/11/25 11:48:12;;;;;;;15.90;2.92;;;11.60;99.90;;;;;;5079768;28;20099;-71
2022/11/25 11:50:43;;;;;;;21.27;3.30;;;11.50;99.90;;;;;;5069746;28;20016;-71
2022/11/25 11:53:27;;;;;;;17.85;2.75;;;11.50;99.90;;;;;;5067599;28;20016;-68
2022/11/25 11:56:16;;;;;;;16.13;2.53;;;11.50;99.90;;;;;;5061918;28;20025;-69
2022/11/25 11:58:44;;;;;;;23.42;2.97;;;11.40;99.90;;;;;;5082784;28;20339;-68
2022/11/25 12:01:22;;;;;;;19.42;3.13;;;11.40;99.90;;;;;;5085875;28;20044;-68
2022/11/25 12:04:02;;;;;;;18.45;2.60;;;11.50;99.90;;;;;;5087470;28;20332;-71
2022/11/25 12:06:33;;;;;;;21.48;3.03;;;11.50;99.90;;;;;;5087038;28;20103;-71
2022/11/25 12:09:08;;;;;;;17.70;2.90;;;11.50;99.90;;;;;;5088501;28;20021;-71
2022/11/25 12:11:36;;;;;;;;;;;11.60;99.90;;;;;;5082759;28;20119;-67
2022/11/25 12:14:40;;;;;;;17.85;2.63;;;11.60;99.90;;;;;;5087507;28;20465;-69
2022/11/25 12:17:33;;;;;;;19.98;3.83;;;11.60;99.90;;;;;;5022886;28;20107;-68
2022/11/25 12:20:25;;;;;;;23.60;3.38;;;11.60;99.90;;;;;;5021880;28;20038;-68
2022/11/25 12:22:56;;;;;;;18.92;3.25;;;11.60;99.90;;;;;;5025286;28;20494;-71
2022/11/25 12:25:24;;;;;;;26.65;3.30;;;11.70;99.90;;;;;;5025625;28;20064;-70
2022/11/25 12:28:01;;;;;;;26.95;3.50;;;11.70;99.90;;;;;;5027979;28;20037;-69
2022/11/25 12:30:37;;;;;;;22.98;3.15;;;11.70;99.90;;;;;;5024971;28;20424;-68
2022/11/25 12:33:11;;;;;;;;;;;11.70;99.90;;;;;;5011512;28;20564;-69
2022/11/25 12:35:42;;;;;;;19.80;3.72;;;11.60;99.90;;;;;;4999152;28;20005;-68
2022/11/25 12:38:34;;;;;;;18.63;3.40;;;11.60;99.90;;;;;;5020783;28;20026;-68
2022/11/25 12:41:27;;;;;;;17.77;3.53;;;11.70;99.90;;;;;;4993464;28;20022;-69
2022/11/25 12:44:17;;;;;;;16.83;2.97;;;11.70;99.90;;;;;;5010423;28;20044;-68
2022/11/25 12:46:50;;;;;;;22.58;3.30;;;11.70;99.90;;;;;;4994387;28;20415;-68
2022/11/25 12:49:24;;;;;;;20.88;3.33;;;11.60;99.90;;;;;;5009862;28;20128;-68
2022/11/25 12:52:40;;;;;;;15.23;3.00;;;11.60;99.90;;;;;;5054726;28;20041;-68
2022/11/25 12:55:18;;;;;;;22.60;3.53;;;11.70;99.90;;;;;;5039364;28;20510;-68
2022/11/25 12:58:11;;;;;;;19.17;3.53;;;11.70;99.90;;;;;;5034177;28;20036;-70
2022/11/25 13:01:05;;;;;;;26.58;3.65;;;11.70;99.90;;;;;;5030202;28;20182;-70
2022/11/25 13:03:34;;;;;;;24.25;3.50;;;11.80;99.90;;;;;;5018796;28;20572;-70
2022/11/25 13:06:33;;;;;;;24.23;3.35;;;11.80;99.90;;;;;;5042419;28;20036;-68
2022/11/25 13:09:45;;;;;;;21.58;3.40;;;11.90;99.90;;;;;;5030012;28;20036;-67
2022/11/25 13:12:13;;;;;;;15.57;2.95;;;11.90;99.90;;;;;;4990409;28;20046;-69
2022/11/25 13:14:58;;;;;;;19.27;3.78;;;11.90;99.90;;;;;;5002204;28;20040;-68
2022/11/25 13:17:24;;;;;;;25.58;3.47;;;11.90;99.90;;;;;;4990713;28;20478;-69
2022/11/25 13:20:28;;;;;;;18.85;3.13;;;11.90;99.90;;;;;;4990374;28;20042;-68